createdAt,value
2023-01-09T00:00:52.925Z,5.18
2023-01-09T00:03:19.377Z,5.15
2023-01-09T00:05:45.911Z,5.14
2023-01-09T00:08:12.382Z,5.17
2023-01-09T00:10:38.841Z,5.19
2023-01-09T00:13:05.321Z,5.18
2023-01-09T00:15:31.827Z,5.20
2023-01-09T00:17:58.294Z,5.18
2023-01-09T00:20:24.783Z,5.18
2023-01-09T00:22:51.264Z,5.19
2023-01-09T00:25:17.770Z,4.54
2023-01-09T00:27:44.252Z,5.20
2023-01-09T00:30:11.070Z,5.19
2023-01-09T00:32:37.529Z,5.19
2023-01-09T00:35:04.135Z,5.19
2023-01-09T00:37:30.612Z,5.25
2023-01-09T00:39:57.093Z,5.24
2023-01-09T00:42:24.281Z,5.30
2023-01-09T00:45:00.953Z,5.41
2023-01-09T00:47:28.654Z,5.39
2023-01-09T00:49:55.515Z,5.38
2023-01-09T00:52:22.009Z,5.42
2023-01-09T00:54:48.690Z,5.37
2023-01-09T00:57:15.267Z,5.35
2023-01-09T00:59:41.794Z,5.29
2023-01-09T01:02:08.754Z,5.31
2023-01-09T01:04:54.069Z,5.30
2023-01-09T01:07:38.798Z,5.33
2023-01-09T01:10:06.028Z,5.47
2023-01-09T01:16:00.834Z,5.69
2023-01-09T01:18:27.288Z,5.65
2023-01-09T01:20:53.774Z,5.69
2023-01-09T01:23:20.250Z,5.64
2023-01-09T01:25:46.926Z,5.67
2023-01-09T01:28:13.425Z,5.69
2023-01-09T01:30:40.321Z,5.74
2023-01-09T01:33:06.881Z,5.85
2023-01-09T01:35:33.385Z,5.96
2023-01-09T01:37:59.934Z,6.02
2023-01-09T01:40:26.451Z,6.10
2023-01-09T01:42:53.420Z,6.20
2023-01-09T01:45:20.609Z,6.21
2023-01-09T01:47:50.319Z,6.25
2023-01-09T01:50:16.783Z,6.29
2023-01-09T01:52:44.520Z,6.31
2023-01-09T01:55:11.038Z,6.35
2023-01-09T01:57:38.026Z,6.37
2023-01-09T02:00:04.817Z,6.40
2023-01-09T02:02:31.724Z,6.47
2023-01-09T02:04:58.754Z,6.54
2023-01-09T02:07:25.248Z,6.60
2023-01-09T02:09:51.932Z,6.64
2023-01-09T02:12:25.032Z,6.70
2023-01-09T02:14:54.790Z,6.71
2023-01-09T02:17:21.251Z,6.76
2023-01-09T02:23:19.076Z,6.87
2023-01-09T02:25:55.447Z,6.86
2023-01-09T02:28:25.063Z,6.86
2023-01-09T02:30:54.578Z,6.89
2023-01-09T02:33:33.840Z,6.92
2023-01-09T02:36:17.194Z,6.94
2023-01-09T02:38:52.745Z,6.98
2023-01-09T02:41:24.456Z,7.10
2023-01-09T02:44:09.571Z,7.13
2023-01-09T02:46:36.018Z,7.13
2023-01-09T02:49:02.470Z,7.14
2023-01-09T02:51:35.005Z,7.19
2023-01-09T02:54:07.209Z,7.25
2023-01-09T02:56:42.733Z,7.29
2023-01-09T02:59:13.055Z,7.31
2023-01-09T03:01:52.448Z,7.40
2023-01-09T03:04:28.311Z,7.42
2023-01-09T03:07:24.137Z,7.45
2023-01-09T03:09:50.748Z,7.47
2023-01-09T03:12:18.409Z,7.52
2023-01-09T03:14:46.281Z,7.58
2023-01-09T03:17:13.338Z,7.60
2023-01-09T03:19:39.812Z,7.69
2023-01-09T03:22:06.458Z,7.69
2023-01-09T03:24:33.330Z,7.70
2023-01-09T03:26:59.835Z,7.73
2023-01-09T03:29:27.458Z,7.77
2023-01-09T03:31:55.352Z,7.82
2023-01-09T03:34:21.832Z,7.87
2023-01-09T03:36:48.323Z,7.97
2023-01-09T03:39:14.778Z,7.95
2023-01-09T03:41:41.267Z,7.95
2023-01-09T03:44:07.734Z,8.01
2023-01-09T03:46:34.210Z,7.99
2023-01-09T03:49:00.701Z,8.17
2023-01-09T03:51:27.185Z,8.21
2023-01-09T03:53:53.731Z,8.18
2023-01-09T03:56:20.298Z,8.19
2023-01-09T03:58:46.817Z,8.16
2023-01-09T04:01:29.753Z,8.14
2023-01-09T04:03:56.315Z,8.13
2023-01-09T04:06:22.884Z,8.21
2023-01-09T04:08:49.373Z,8.28
2023-01-09T04:11:18.138Z,8.25
2023-01-09T04:13:45.222Z,8.21
2023-01-09T04:16:11.748Z,8.23
2023-01-09T04:18:38.335Z,8.31
2023-01-09T04:21:04.805Z,8.32
2023-01-09T04:23:31.329Z,8.39
2023-01-09T04:25:57.810Z,8.46
2023-01-09T04:28:24.328Z,8.45
2023-01-09T04:30:50.760Z,8.40
2023-01-09T04:33:17.248Z,8.40
2023-01-09T04:35:43.692Z,8.45
2023-01-09T04:38:10.207Z,8.41
2023-01-09T04:40:36.687Z,8.41
2023-01-09T04:43:03.149Z,8.40
2023-01-09T04:45:29.691Z,8.41
2023-01-09T04:47:56.175Z,8.37
2023-01-09T04:50:22.753Z,8.37
2023-01-09T04:52:49.272Z,8.33
2023-01-09T04:55:15.814Z,8.28
2023-01-09T04:57:42.266Z,8.29
2023-01-09T05:00:10.004Z,8.25
2023-01-09T05:02:36.934Z,8.29
2023-01-09T05:05:03.501Z,8.26
2023-01-09T05:07:29.950Z,8.29
2023-01-09T05:09:56.451Z,8.30
2023-01-09T05:12:22.908Z,8.28
2023-01-09T05:14:49.375Z,8.26
2023-01-09T05:17:15.852Z,8.26
2023-01-09T05:19:42.586Z,8.30
2023-01-09T05:22:09.086Z,8.28
2023-01-09T05:24:35.532Z,8.24
2023-01-09T05:27:02.839Z,8.19
2023-01-09T05:29:29.370Z,8.17
2023-01-09T05:31:55.894Z,8.13
2023-01-09T05:34:22.432Z,8.08
2023-01-09T05:36:48.893Z,8.05
2023-01-09T05:39:15.478Z,8.07
2023-01-09T05:41:41.918Z,8.04
2023-01-09T05:44:08.381Z,8.01
2023-01-09T05:46:34.909Z,7.94
2023-01-09T05:49:01.344Z,7.91
2023-01-09T05:51:27.855Z,7.87
2023-01-09T05:53:54.319Z,7.88
2023-01-09T05:56:20.757Z,7.92
2023-01-09T05:58:47.218Z,7.84
2023-01-09T06:01:13.703Z,7.77
2023-01-09T06:03:40.365Z,7.67
2023-01-09T06:06:07.014Z,7.65
2023-01-09T06:08:33.526Z,7.67
2023-01-09T06:10:59.959Z,7.70
2023-01-09T06:13:26.645Z,7.70
2023-01-09T06:15:53.109Z,7.65
2023-01-09T06:18:19.542Z,7.58
2023-01-09T06:20:46.350Z,7.62
2023-01-09T06:23:13.582Z,7.66
2023-01-09T06:25:40.297Z,7.60
2023-01-09T06:28:06.889Z,7.55
2023-01-09T06:30:34.117Z,7.57
2023-01-09T06:33:00.772Z,7.53
2023-01-09T06:35:27.371Z,7.56
2023-01-09T06:37:54.240Z,7.59
2023-01-09T06:40:21.269Z,7.58
2023-01-09T06:42:47.875Z,7.55
2023-01-09T06:45:14.540Z,7.57
2023-01-09T06:47:41.140Z,7.61
2023-01-09T06:50:09.404Z,7.59
2023-01-09T06:52:39.052Z,7.54
2023-01-09T06:55:05.923Z,7.53
2023-01-09T06:57:32.569Z,7.48
2023-01-09T06:59:59.076Z,7.48
2023-01-09T07:02:25.526Z,7.49
2023-01-09T07:04:52.071Z,7.49
2023-01-09T07:07:19.833Z,7.48
2023-01-09T07:09:46.449Z,7.48
2023-01-09T07:12:13.083Z,7.49
2023-01-09T07:14:39.689Z,7.50
2023-01-09T07:17:06.172Z,7.47
2023-01-09T07:19:32.665Z,7.44
2023-01-09T07:21:59.099Z,7.48
2023-01-09T07:24:25.523Z,7.56
2023-01-09T07:26:51.981Z,7.57
2023-01-09T07:29:18.520Z,7.59
2023-01-09T07:31:44.925Z,7.63
2023-01-09T07:34:11.411Z,7.62
2023-01-09T07:36:37.933Z,7.66
2023-01-09T07:39:04.403Z,7.62
2023-01-09T07:41:30.866Z,7.60
2023-01-09T07:43:57.586Z,7.67
2023-01-09T07:46:24.124Z,7.70
2023-01-09T07:49:26.757Z,7.70
2023-01-09T07:51:53.454Z,7.71
2023-01-09T07:54:19.941Z,7.74
2023-01-09T07:56:46.670Z,7.74
2023-01-09T07:59:13.147Z,7.71
2023-01-09T08:01:39.728Z,7.71
2023-01-09T08:04:06.354Z,7.78
2023-01-09T08:06:32.890Z,7.73
2023-01-09T08:08:59.461Z,7.80
2023-01-09T08:11:25.911Z,7.79
2023-01-09T08:13:53.412Z,7.80
2023-01-09T08:16:19.950Z,7.86
2023-01-09T08:18:46.551Z,7.88
2023-01-09T08:21:14.318Z,7.87
2023-01-09T08:23:40.790Z,7.90
2023-01-09T08:26:07.288Z,7.87
2023-01-09T08:28:33.795Z,7.87
2023-01-09T08:31:00.309Z,7.84
2023-01-09T08:33:26.881Z,7.82
2023-01-09T08:35:54.205Z,7.83
2023-01-09T08:38:22.066Z,7.83
2023-01-09T08:40:48.641Z,7.79
2023-01-09T08:43:33.717Z,7.82
2023-01-09T08:46:19.444Z,7.81
2023-01-09T08:48:46.028Z,7.81
2023-01-09T08:51:12.554Z,7.86
2023-01-09T08:53:39.040Z,7.89
2023-01-09T08:56:05.593Z,7.92
2023-01-09T08:58:32.066Z,7.96
2023-01-09T09:00:59.035Z,7.94
2023-01-09T09:03:25.488Z,7.98
2023-01-09T09:05:51.924Z,8.00
2023-01-09T09:08:20.029Z,7.98
2023-01-09T09:10:46.465Z,8.04
2023-01-09T09:13:12.900Z,8.00
2023-01-09T09:15:39.508Z,7.97
2023-01-09T09:18:07.018Z,7.99
2023-01-09T09:20:37.987Z,7.99
2023-01-09T09:23:04.643Z,8.04
2023-01-09T09:25:31.141Z,8.10
2023-01-09T09:27:57.639Z,8.18
2023-01-09T09:30:24.267Z,8.14
2023-01-09T09:32:50.826Z,8.23
2023-01-09T09:35:21.209Z,8.25
2023-01-09T09:37:54.588Z,8.22
2023-01-09T09:40:23.282Z,8.22
2023-01-09T09:43:18.207Z,8.24
2023-01-09T09:45:46.745Z,8.25
2023-01-09T09:48:18.986Z,8.25
2023-01-09T09:50:51.509Z,8.23
2023-01-09T09:53:21.942Z,8.20
2023-01-09T09:55:48.497Z,8.18
2023-01-09T09:58:21.788Z,8.17
2023-01-09T10:00:51.385Z,8.20
2023-01-09T10:03:33.364Z,8.14
2023-01-09T10:06:00.485Z,8.23
2023-01-09T10:08:45.959Z,8.22
2023-01-09T10:11:13.483Z,8.21
2023-01-09T10:13:58.781Z,8.18
2023-01-09T10:16:43.668Z,8.24
2023-01-09T10:19:19.334Z,8.21
2023-01-09T10:22:09.267Z,8.17
2023-01-09T10:25:11.549Z,8.13
2023-01-09T10:27:38.210Z,8.10
2023-01-09T10:30:24.504Z,8.03
2023-01-09T10:33:01.299Z,8.07
2023-01-09T10:35:48.097Z,8.06
2023-01-09T10:38:15.979Z,8.08
2023-01-09T10:40:44.217Z,8.03
2023-01-09T10:43:16.657Z,7.95
2023-01-09T10:46:21.499Z,7.90
2023-01-09T10:48:50.719Z,7.96
2023-01-09T10:51:21.383Z,7.97
2023-01-09T10:53:57.131Z,7.95
2023-01-09T10:56:27.337Z,7.99
2023-01-09T10:58:54.287Z,7.99
2023-01-09T11:01:24.271Z,8.05
2023-01-09T11:03:50.740Z,8.07
2023-01-09T11:06:22.391Z,8.03
2023-01-09T11:08:50.801Z,8.05
2023-01-09T11:11:45.412Z,7.99
2023-01-09T11:14:15.707Z,7.97
2023-01-09T11:16:52.147Z,7.94
2023-01-09T11:19:18.590Z,7.90
2023-01-09T11:21:45.227Z,8.03
2023-01-09T11:24:26.454Z,7.91
2023-01-09T11:26:53.737Z,7.88
2023-01-09T11:29:20.945Z,7.98
2023-01-09T11:31:51.769Z,7.85
2023-01-09T11:34:18.618Z,7.82
2023-01-09T11:36:45.504Z,7.85
2023-01-09T11:39:28.527Z,7.87
2023-01-09T11:41:55.777Z,7.99
2023-01-09T11:44:22.322Z,7.96
2023-01-09T11:46:49.094Z,7.96
2023-01-09T11:49:15.545Z,7.99
2023-01-09T11:51:42.076Z,7.96
2023-01-09T11:54:08.600Z,7.95
2023-01-09T11:56:36.127Z,7.91
2023-01-09T11:59:02.561Z,7.86
2023-01-09T12:01:38.221Z,7.85
2023-01-09T12:04:07.835Z,7.86
2023-01-09T12:06:40.455Z,7.83
2023-01-09T12:09:07.298Z,7.79
2023-01-09T12:11:46.785Z,7.75
2023-01-09T12:14:19.343Z,7.76
2023-01-09T12:17:01.059Z,7.80
2023-01-09T12:19:32.362Z,7.79
2023-01-09T12:22:11.613Z,7.71
2023-01-09T12:24:56.790Z,7.66
2023-01-09T12:27:26.437Z,7.66
2023-01-09T12:30:05.207Z,7.70
2023-01-09T12:32:37.985Z,7.76
2023-01-09T12:35:19.781Z,7.76
2023-01-09T12:38:05.758Z,7.79
2023-01-09T12:40:41.468Z,7.77
2023-01-09T12:43:14.177Z,7.85
2023-01-09T12:45:40.656Z,7.88
2023-01-09T12:48:10.952Z,7.94
2023-01-09T12:50:56.260Z,7.92
2023-01-09T12:53:34.697Z,7.91
2023-01-09T12:56:18.666Z,7.91
2023-01-09T12:58:48.742Z,7.91
2023-01-09T13:01:17.408Z,7.90
2023-01-09T13:03:47.427Z,7.88
2023-01-09T13:06:15.043Z,7.90
2023-01-09T13:08:48.416Z,7.85
2023-01-09T13:11:21.251Z,7.87
2023-01-09T13:14:01.937Z,7.89
2023-01-09T13:16:29.687Z,7.87
2023-01-09T13:18:57.833Z,7.90
2023-01-09T13:21:24.361Z,7.84
2023-01-09T13:24:01.758Z,7.81
2023-01-09T13:26:28.234Z,7.83
2023-01-09T13:29:08.786Z,7.82
2023-01-09T13:31:53.948Z,7.78
2023-01-09T13:34:22.793Z,7.71
2023-01-09T13:36:50.501Z,7.69
2023-01-09T13:39:27.223Z,7.66
2023-01-09T13:42:13.388Z,7.63
2023-01-09T13:44:40.086Z,7.66
2023-01-09T13:47:09.539Z,7.64
2023-01-09T13:49:42.290Z,7.63
2023-01-09T13:52:27.463Z,7.65
2023-01-09T13:55:02.862Z,7.67
2023-01-09T13:57:30.301Z,7.65
2023-01-09T14:00:20.000Z,7.60
2023-01-09T14:02:47.041Z,7.58
2023-01-09T14:05:13.493Z,7.57
2023-01-09T14:07:41.357Z,7.55
2023-01-09T14:10:33.813Z,7.46
2023-01-09T14:13:00.290Z,7.46
2023-01-09T14:15:26.895Z,7.46
2023-01-09T14:18:03.084Z,7.46
2023-01-09T14:20:36.750Z,7.39
2023-01-09T14:25:56.211Z,7.39
2023-01-09T14:28:26.770Z,7.32
2023-01-09T14:30:53.257Z,7.33
2023-01-09T14:33:19.839Z,7.30
2023-01-09T14:35:48.372Z,7.31
2023-01-09T14:38:21.598Z,7.37
2023-01-09T14:40:50.985Z,7.37
2023-01-09T14:43:21.645Z,7.32
2023-01-09T14:45:49.955Z,7.24
2023-01-09T14:48:16.671Z,7.18
2023-01-09T14:50:48.814Z,7.15
2023-01-09T14:53:22.892Z,7.07
2023-01-09T14:55:53.276Z,6.96
2023-01-09T14:58:29.813Z,6.88
2023-01-09T15:01:03.729Z,6.88
2023-01-09T15:03:34.401Z,5.78
2023-01-09T15:06:00.852Z,6.81
2023-01-09T15:08:27.322Z,6.80
2023-01-09T15:10:54.162Z,6.80
2023-01-09T15:13:30.656Z,6.79
2023-01-09T15:15:57.135Z,6.76
2023-01-09T15:18:29.329Z,6.77
2023-01-09T15:21:00.050Z,6.74
2023-01-09T15:23:29.621Z,6.67
2023-01-09T15:25:56.871Z,6.64
2023-01-09T15:28:30.941Z,6.57
2023-01-09T15:31:04.968Z,6.52
2023-01-09T15:33:31.557Z,6.51
2023-01-09T15:36:02.624Z,6.49
2023-01-09T15:38:29.833Z,6.47
2023-01-09T15:40:59.640Z,6.51
2023-01-09T15:43:27.012Z,6.50
2023-01-09T15:45:53.511Z,6.49
2023-01-09T15:48:27.178Z,6.47
2023-01-09T15:51:04.400Z,6.47
2023-01-09T15:53:31.021Z,6.50
2023-01-09T15:56:06.949Z,6.52
2023-01-09T15:58:36.963Z,6.53
2023-01-09T16:01:12.660Z,6.53
2023-01-09T16:03:39.210Z,6.55
2023-01-09T16:06:09.989Z,6.57
2023-01-09T16:08:57.866Z,6.58
2023-01-09T16:11:26.107Z,6.61
2023-01-09T16:13:52.620Z,6.62
2023-01-09T16:16:23.790Z,6.65
2023-01-09T16:18:50.924Z,6.69
2023-01-09T16:21:31.184Z,6.71
2023-01-09T16:23:58.813Z,6.71
2023-01-09T16:26:26.088Z,6.71
2023-01-09T16:28:52.726Z,6.72
2023-01-09T16:31:23.773Z,6.70
2023-01-09T16:33:54.025Z,6.71
2023-01-09T16:36:21.748Z,6.67
2023-01-09T16:38:48.308Z,6.66
2023-01-09T16:41:39.949Z,6.63
2023-01-09T16:44:09.781Z,6.59
2023-01-09T16:46:38.294Z,6.55
2023-01-09T16:49:05.717Z,6.54
2023-01-09T16:51:32.250Z,6.55
2023-01-09T16:53:58.876Z,6.54
2023-01-09T16:56:28.545Z,6.54
2023-01-09T16:58:55.179Z,6.54
2023-01-09T17:01:22.215Z,6.53
2023-01-09T17:03:48.944Z,6.53
2023-01-09T17:06:16.299Z,6.56
2023-01-09T17:08:44.044Z,6.62
2023-01-09T17:11:14.214Z,6.58
2023-01-09T17:13:40.660Z,6.53
2023-01-09T17:16:07.434Z,6.49
2023-01-09T17:18:34.155Z,6.47
2023-01-09T17:21:00.698Z,6.47
2023-01-09T17:23:27.525Z,6.47
2023-01-09T17:26:16.072Z,6.46
2023-01-09T17:28:49.534Z,6.47
2023-01-09T17:31:16.023Z,6.51
2023-01-09T17:33:42.748Z,6.47
2023-01-09T17:36:15.407Z,6.43
2023-01-09T17:38:41.856Z,6.39
2023-01-09T17:41:10.150Z,6.37
2023-01-09T17:43:36.841Z,6.35
2023-01-09T17:46:03.498Z,6.32
2023-01-09T17:48:30.036Z,6.26
2023-01-09T17:50:56.651Z,6.21
2023-01-09T17:53:24.839Z,6.21
2023-01-09T17:55:51.304Z,6.22
2023-01-09T17:58:20.823Z,6.24
2023-01-09T18:00:47.934Z,6.26
2023-01-09T18:03:14.402Z,6.28
2023-01-09T18:05:40.853Z,6.28
2023-01-09T18:08:10.089Z,6.26
2023-01-09T18:10:37.511Z,6.27
2023-01-09T18:13:04.032Z,6.26
2023-01-09T18:15:30.615Z,6.24
2023-01-09T18:17:57.616Z,6.23
2023-01-09T18:20:25.551Z,6.23
2023-01-09T18:22:52.134Z,6.25
2023-01-09T18:25:18.585Z,6.27
2023-01-09T18:27:45.082Z,6.29
2023-01-09T18:30:11.833Z,6.30
2023-01-09T18:32:38.316Z,6.29
2023-01-09T18:35:05.037Z,6.31
2023-01-09T18:37:31.583Z,6.32
2023-01-09T18:39:58.163Z,6.32
2023-01-09T18:42:24.720Z,6.35
2023-01-09T18:44:51.211Z,6.35
2023-01-09T18:47:17.688Z,6.36
2023-01-09T18:49:44.255Z,6.37
2023-01-09T18:52:10.755Z,6.37
2023-01-09T18:54:38.524Z,6.37
2023-01-09T18:57:05.035Z,6.39
2023-01-09T18:59:31.538Z,6.38
2023-01-09T19:01:58.636Z,6.38
2023-01-09T19:04:26.880Z,6.40
2023-01-09T19:06:56.114Z,6.39
2023-01-09T19:09:22.573Z,6.40
2023-01-09T19:11:49.149Z,6.40
2023-01-09T19:14:15.735Z,6.40
2023-01-09T19:16:42.562Z,6.40
2023-01-09T19:19:09.153Z,6.41
2023-01-09T19:21:36.074Z,6.40
2023-01-09T19:24:02.984Z,6.40
2023-01-09T19:26:31.106Z,6.43
2023-01-09T19:28:57.938Z,6.40
2023-01-09T19:31:25.459Z,6.38
2023-01-09T19:33:52.471Z,6.36
2023-01-09T19:36:19.009Z,6.37
2023-01-09T19:38:45.641Z,6.37
2023-01-09T19:41:14.526Z,6.37
2023-01-09T19:43:41.539Z,6.35
2023-01-09T19:46:12.607Z,6.36
2023-01-09T19:48:39.160Z,6.35
2023-01-09T19:51:06.571Z,6.36
2023-01-09T19:53:33.277Z,6.35
2023-01-09T19:56:19.857Z,6.32
2023-01-09T19:58:50.319Z,6.31
2023-01-09T20:01:17.790Z,6.30
2023-01-09T20:03:44.491Z,6.29
2023-01-09T20:06:14.564Z,6.29
2023-01-09T20:08:43.243Z,6.30
2023-01-09T20:11:09.852Z,6.32
2023-01-09T20:13:36.420Z,6.30
2023-01-09T20:16:03.714Z,6.28
2023-01-09T20:18:30.829Z,6.31
2023-01-09T20:20:57.405Z,6.29
2023-01-09T20:23:24.858Z,6.29
2023-01-09T20:25:51.375Z,6.28
2023-01-09T20:28:17.844Z,6.27
2023-01-09T20:30:47.972Z,6.25
2023-01-09T20:33:14.851Z,6.23
2023-01-09T20:35:41.383Z,6.24
2023-01-09T20:38:08.020Z,6.24
2023-01-09T20:40:34.808Z,6.19
2023-01-09T20:43:01.354Z,6.13
2023-01-09T20:45:28.205Z,6.11
2023-01-09T20:47:54.775Z,6.03
2023-01-09T20:50:21.774Z,5.98
2023-01-09T20:52:48.262Z,5.94
2023-01-09T20:55:14.757Z,5.92
2023-01-09T20:57:41.233Z,5.91
2023-01-09T21:00:08.079Z,5.89
2023-01-09T21:02:34.859Z,5.88
2023-01-09T21:05:01.595Z,5.89
2023-01-09T21:07:28.205Z,5.91
2023-01-09T21:09:54.893Z,5.88
2023-01-09T21:12:37.650Z,5.88
2023-01-09T21:15:05.279Z,5.86
2023-01-09T21:17:35.491Z,5.85
2023-01-09T21:20:02.380Z,5.89
2023-01-09T21:22:28.868Z,5.91
2023-01-09T21:24:55.507Z,5.87
2023-01-09T21:27:22.221Z,5.89
2023-01-09T21:29:48.807Z,5.86
2023-01-09T21:32:15.291Z,5.93
2023-01-09T21:34:41.933Z,5.89
2023-01-09T21:37:08.458Z,5.88
2023-01-09T21:39:35.315Z,6.00
2023-01-09T21:42:20.407Z,5.90
2023-01-09T21:45:05.610Z,5.87
2023-01-09T21:47:33.125Z,5.91
2023-01-09T21:49:59.620Z,5.56
2023-01-09T21:52:26.123Z,5.83
2023-01-09T21:54:52.779Z,5.72
2023-01-09T21:57:19.306Z,5.74
2023-01-09T21:59:45.822Z,5.66
2023-01-09T22:02:13.049Z,5.61
2023-01-09T22:04:39.708Z,5.60
2023-01-09T22:10:33.936Z,5.55
2023-01-09T22:13:17.775Z,5.50
2023-01-09T22:15:46.153Z,5.52
2023-01-09T22:18:12.624Z,5.54
2023-01-09T22:20:39.137Z,5.53
2023-01-09T22:23:05.623Z,5.52
2023-01-09T22:25:32.126Z,5.51
2023-01-09T22:27:58.956Z,5.48
2023-01-09T22:30:25.472Z,5.63
2023-01-09T22:32:51.990Z,5.63
2023-01-09T22:35:18.533Z,5.52
2023-01-09T22:37:45.559Z,5.45
2023-01-09T22:40:12.183Z,5.44
2023-01-09T22:42:38.757Z,5.49
2023-01-09T22:45:05.476Z,5.37
2023-01-09T22:47:31.932Z,5.30
2023-01-09T22:49:58.483Z,5.28
2023-01-09T22:52:25.176Z,5.26
2023-01-09T22:54:51.687Z,5.26
2023-01-09T22:57:18.235Z,5.25
2023-01-09T22:59:44.701Z,5.26
2023-01-09T23:02:11.310Z,5.23
2023-01-09T23:04:37.876Z,5.22
2023-01-09T23:07:04.360Z,5.18
2023-01-09T23:09:30.830Z,5.20
2023-01-09T23:12:03.001Z,5.20
2023-01-09T23:14:29.855Z,5.19
2023-01-09T23:16:56.465Z,5.22
2023-01-09T23:19:23.060Z,5.19
2023-01-09T23:21:49.625Z,5.13
2023-01-09T23:24:16.357Z,5.08
2023-01-09T23:26:44.385Z,5.11
2023-01-09T23:29:10.938Z,5.04
2023-01-09T23:31:37.571Z,5.01
2023-01-09T23:34:04.256Z,5.02
2023-01-09T23:36:30.877Z,5.01
2023-01-09T23:38:57.407Z,5.01
2023-01-09T23:41:43.956Z,5.05
2023-01-09T23:44:10.482Z,5.02
2023-01-09T23:46:36.921Z,5.00
2023-01-09T23:49:03.588Z,5.01
2023-01-09T23:51:50.319Z,5.03
2023-01-09T23:54:17.567Z,4.98
2023-01-09T23:56:44.110Z,5.08
2023-01-09T23:59:12.007Z,5.00
